Time,TemperatureF,DewpointF,PressureIn,WindDirection,WindDirectionDegrees,WindSpeedMPH,WindSpeedGustMPH,Humidity,HourlyPrecipIn,Conditions,Clouds,dailyrainin,SolarRadiationWatts/m^2,SoftwareType,DateUTC
2013-04-27 00:02:00,57.7,34.2,30.28,NE,40,2.0,3.0,41,0.00,,,0.00,0.0,meteohub,2013-04-27 04:02:00,
2013-04-27 00:04:00,57.7,34.2,30.28,North,5,1.0,3.0,41,0.00,,,0.00,0.0,meteohub,2013-04-27 04:04:00,
2013-04-27 00:07:00,57.7,34.2,30.28,ENE,58,1.0,3.0,41,0.00,,,0.00,0.0,meteohub,2013-04-27 04:07:00,
2013-04-27 00:10:00,57.7,34.2,30.28,NE,53,1.0,3.0,41,0.00,,,0.00,0.0,meteohub,2013-04-27 04:10:00,
2013-04-27 00:16:00,57.6,34.0,30.28,East,84,0.0,3.0,41,0.00,,,0.00,0.0,meteohub,2013-04-27 04:16:00,
2013-04-27 00:19:00,57.6,34.0,30.28,ESE,104,0.0,3.0,41,0.00,,,0.00,0.0,meteohub,2013-04-27 04:19:00,
2013-04-27 00:25:00,57.6,34.7,30.29,East,82,0.0,4.0,42,0.00,,,0.00,0.0,meteohub,2013-04-27 04:25:00,
2013-04-27 00:31:00,57.6,34.0,30.29,ENE,61,0.0,5.0,41,0.00,,,0.00,0.0,meteohub,2013-04-27 04:31:00,
2013-04-27 00:37:00,57.6,34.7,30.29,ENE,61,0.0,5.0,42,0.00,,,0.00,0.0,meteohub,2013-04-27 04:37:00,
2013-04-27 00:43:00,57.6,35.2,30.29,South,173,0.0,5.0,43,0.00,,,0.00,0.0,meteohub,2013-04-27 04:43:00,
2013-04-27 00:49:00,57.4,36.1,30.29,South,173,2.0,3.0,45,0.00,,,0.00,0.0,meteohub,2013-04-27 04:49:00,
2013-04-27 00:55:00,56.8,36.9,30.29,NW,321,1.0,3.0,47,0.00,,,0.00,0.0,meteohub,2013-04-27 04:55:00,
2013-04-27 01:01:00,56.5,38.7,30.29,NW,321,0.0,2.0,51,0.00,,,0.00,0.0,meteohub,2013-04-27 05:01:00,
2013-04-27 01:07:00,55.9,38.1,30.30,NW,321,0.0,2.0,51,0.00,,,0.00,0.0,meteohub,2013-04-27 05:07:00,
2013-04-27 01:12:00,55.6,38.3,30.30,NW,321,0.0,1.0,52,0.00,,,0.00,0.0,meteohub,2013-04-27 05:12:00,
2013-04-27 01:17:00,55.2,38.3,30.29,NW,321,0.0,1.0,53,0.00,,,0.00,0.0,meteohub,2013-04-27 05:17:00,
2013-04-27 01:22:00,55.0,38.7,30.29,NW,321,0.0,2.0,54,0.00,,,0.00,0.0,meteohub,2013-04-27 05:22:00,
2013-04-27 01:27:00,54.7,38.3,30.28,NW,321,0.0,2.0,54,0.00,,,0.00,0.0,meteohub,2013-04-27 05:27:00,
2013-04-27 01:32:00,54.7,39.4,30.28,NW,321,1.0,1.0,56,0.00,,,0.00,0.0,meteohub,2013-04-27 05:32:00,
2013-04-27 01:37:00,54.5,40.5,30.28,NW,321,1.0,2.0,59,0.00,,,0.00,0.0,meteohub,2013-04-27 05:37:00,
2013-04-27 01:42:00,54.7,38.8,30.27,North,351,2.0,3.0,55,0.00,,,0.00,0.0,meteohub,2013-04-27 05:42:00,
2013-04-27 01:47:00,54.9,38.5,30.27,North,351,1.0,3.0,54,0.00,,,0.00,0.0,meteohub,2013-04-27 05:47:00,
2013-04-27 01:52:00,54.9,39.0,30.27,North,351,1.0,3.0,55,0.00,,,0.00,0.0,meteohub,2013-04-27 05:52:00,
2013-04-27 01:57:00,54.9,38.5,30.28,North,351,0.0,2.0,54,0.00,,,0.00,0.0,meteohub,2013-04-27 05:57:00,
2013-04-27 02:02:00,54.9,39.0,30.28,North,351,2.0,2.0,55,0.00,,,0.00,0.0,meteohub,2013-04-27 06:02:00,
2013-04-27 02:07:00,54.9,38.5,30.27,North,351,0.0,2.0,54,0.00,,,0.00,0.0,meteohub,2013-04-27 06:07:00,
2013-04-27 02:12:00,54.9,39.4,30.27,North,351,0.0,2.0,56,0.00,,,0.00,0.0,meteohub,2013-04-27 06:12:00,
2013-04-27 02:17:00,55.0,39.6,30.27,North,351,0.0,2.0,56,0.00,,,0.00,0.0,meteohub,2013-04-27 06:17:00,
2013-04-27 02:22:00,55.2,39.4,30.26,North,351,0.0,2.0,55,0.00,,,0.00,0.0,meteohub,2013-04-27 06:22:00,
2013-04-27 02:27:00,55.2,39.4,30.26,North,351,0.0,1.0,55,0.00,,,0.00,0.0,meteohub,2013-04-27 06:27:00,
2013-04-27 02:32:00,55.4,39.9,30.26,North,351,0.0,1.0,56,0.00,,,0.00,0.0,meteohub,2013-04-27 06:32:00,
2013-04-27 02:37:00,55.4,39.9,30.26,North,351,0.0,0.0,56,0.00,,,0.00,0.0,meteohub,2013-04-27 06:37:00,
2013-04-27 02:42:00,55.6,40.6,30.26,North,351,0.0,0.0,57,0.00,,,0.00,0.0,meteohub,2013-04-27 06:42:00,
2013-04-27 02:47:00,55.8,40.8,30.26,North,351,0.0,0.0,57,0.00,,,0.00,0.0,meteohub,2013-04-27 06:47:00,
2013-04-27 02:52:00,55.6,40.6,30.26,North,351,0.0,0.0,57,0.00,,,0.00,0.0,meteohub,2013-04-27 06:52:00,
2013-04-27 02:57:00,55.6,41.0,30.26,North,351,0.0,0.0,58,0.00,,,0.00,0.0,meteohub,2013-04-27 06:57:00,
2013-04-27 03:02:00,55.6,38.7,30.26,North,351,1.0,1.0,53,0.00,,,0.00,0.0,meteohub,2013-04-27 07:02:00,
2013-04-27 03:07:00,55.8,36.9,30.26,North,351,2.0,2.0,49,0.00,,,0.00,0.0,meteohub,2013-04-27 07:07:00,
2013-04-27 03:12:00,55.8,37.9,30.26,NE,40,1.0,3.0,51,0.00,,,0.00,0.0,meteohub,2013-04-27 07:12:00,
2013-04-27 03:17:00,55.8,37.9,30.26,NE,38,0.0,4.0,51,0.00,,,0.00,0.0,meteohub,2013-04-27 07:17:00,
2013-04-27 03:22:00,55.4,38.1,30.26,ENE,59,0.0,4.0,52,0.00,,,0.00,0.0,meteohub,2013-04-27 07:22:00,
2013-04-27 03:27:00,55.2,37.4,30.26,NE,55,0.0,4.0,51,0.00,,,0.00,0.0,meteohub,2013-04-27 07:27:00,
2013-04-27 03:32:00,55.0,36.1,30.26,NNE,22,1.0,3.0,49,0.00,,,0.00,0.0,meteohub,2013-04-27 07:32:00,
2013-04-27 03:37:00,55.2,36.9,30.25,NNE,22,2.0,3.0,50,0.00,,,0.00,0.0,meteohub,2013-04-27 07:37:00,
2013-04-27 03:42:00,55.2,36.3,30.25,NNE,22,0.0,3.0,49,0.00,,,0.00,0.0,meteohub,2013-04-27 07:42:00,
2013-04-27 03:47:00,55.2,36.0,30.25,NNE,22,0.0,3.0,48,0.00,,,0.00,0.0,meteohub,2013-04-27 07:47:00,
2013-04-27 03:52:00,55.6,36.7,30.26,NE,43,0.0,3.0,49,0.00,,,0.00,0.0,meteohub,2013-04-27 07:52:00,
2013-04-27 03:57:00,55.2,39.7,30.25,NW,325,2.0,3.0,56,0.00,,,0.00,0.0,meteohub,2013-04-27 07:57:00,
2013-04-27 04:02:00,54.3,41.5,30.25,NNW,328,1.0,3.0,62,0.00,,,0.00,0.0,meteohub,2013-04-27 08:02:00,
2013-04-27 04:07:00,53.8,40.3,30.25,NNW,328,0.0,3.0,60,0.00,,,0.00,0.0,meteohub,2013-04-27 08:07:00,
2013-04-27 04:12:00,53.4,39.9,30.25,NNW,328,1.0,3.0,60,0.00,,,0.00,0.0,meteohub,2013-04-27 08:12:00,
2013-04-27 04:17:00,53.4,40.6,30.25,NNW,328,0.0,2.0,62,0.00,,,0.00,0.0,meteohub,2013-04-27 08:17:00,
2013-04-27 04:22:00,53.2,41.0,30.25,NW,324,0.0,2.0,63,0.00,,,0.00,0.0,meteohub,2013-04-27 08:22:00,
2013-04-27 04:27:00,53.1,39.9,30.24,NW,324,0.0,2.0,61,0.00,,,0.00,0.0,meteohub,2013-04-27 08:27:00,
2013-04-27 04:32:00,52.9,40.3,30.24,NW,324,0.0,2.0,62,0.00,,,0.00,0.0,meteohub,2013-04-27 08:32:00,
2013-04-27 04:37:00,52.9,40.6,30.24,NW,324,0.0,2.0,63,0.00,,,0.00,0.0,meteohub,2013-04-27 08:37:00,
2013-04-27 04:42:00,52.7,40.8,30.24,NW,324,0.0,1.0,64,0.00,,,0.00,0.0,meteohub,2013-04-27 08:42:00,
2013-04-27 04:47:00,52.5,40.3,30.24,NW,324,0.0,1.0,63,0.00,,,0.00,0.0,meteohub,2013-04-27 08:47:00,
2013-04-27 04:52:00,52.5,40.6,30.24,NW,324,0.0,0.0,64,0.00,,,0.00,0.0,meteohub,2013-04-27 08:52:00,
2013-04-27 04:57:00,52.5,39.9,30.24,NW,324,0.0,0.0,62,0.00,,,0.00,0.0,meteohub,2013-04-27 08:57:00,
2013-04-27 05:02:00,52.5,40.6,30.24,NW,324,0.0,0.0,64,0.00,,,0.00,0.0,meteohub,2013-04-27 09:02:00,
2013-04-27 05:07:00,52.5,40.3,30.24,NW,324,0.0,0.0,63,0.00,,,0.00,0.0,meteohub,2013-04-27 09:07:00,
2013-04-27 05:12:00,52.3,40.1,30.24,NW,324,0.0,0.0,63,0.00,,,0.00,0.0,meteohub,2013-04-27 09:12:00,
2013-04-27 05:17:00,52.3,39.7,30.24,NW,324,0.0,0.0,62,0.00,,,0.00,0.0,meteohub,2013-04-27 09:17:00,
2013-04-27 05:22:00,52.3,40.1,30.24,NW,324,0.0,0.0,63,0.00,,,0.00,0.0,meteohub,2013-04-27 09:22:00,
2013-04-27 05:27:00,52.3,41.4,30.24,NW,324,0.0,0.0,66,0.00,,,0.00,0.0,meteohub,2013-04-27 09:27:00,
2013-04-27 05:32:00,52.3,41.7,30.24,NW,324,0.0,0.0,67,0.00,,,0.00,0.0,meteohub,2013-04-27 09:32:00,
2013-04-27 05:37:00,52.3,42.4,30.24,NW,324,0.0,0.0,69,0.00,,,0.00,0.0,meteohub,2013-04-27 09:37:00,
2013-04-27 05:42:00,52.2,43.0,30.24,NW,324,0.0,0.0,71,0.00,,,0.00,0.0,meteohub,2013-04-27 09:42:00,
2013-04-27 05:47:00,52.0,43.9,30.23,NW,324,0.0,1.0,74,0.00,,,0.00,0.0,meteohub,2013-04-27 09:47:00,
2013-04-27 05:52:00,51.6,44.2,30.23,NW,324,0.0,1.0,76,0.00,,,0.00,0.0,meteohub,2013-04-27 09:52:00,
2013-04-27 05:57:00,51.3,44.2,30.23,NW,324,0.0,1.0,77,0.00,,,0.00,0.0,meteohub,2013-04-27 09:57:00,
2013-04-27 06:02:00,50.9,44.2,30.23,NW,324,0.0,0.0,78,0.00,,,0.00,0.0,meteohub,2013-04-27 10:02:00,
2013-04-27 06:07:00,50.5,43.3,30.23,NW,324,0.0,0.0,76,0.00,,,0.00,0.0,meteohub,2013-04-27 10:07:00,
2013-04-27 06:12:00,50.4,44.1,30.23,NW,324,0.0,0.0,79,0.00,,,0.00,0.0,meteohub,2013-04-27 10:12:00,
2013-04-27 06:17:00,50.2,43.5,30.23,NW,324,0.0,0.0,78,0.00,,,0.00,0.0,meteohub,2013-04-27 10:17:00,
2013-04-27 06:22:00,50.0,44.4,30.24,NW,324,0.0,0.0,81,0.00,,,0.00,0.0,meteohub,2013-04-27 10:22:00,
2013-04-27 06:27:00,50.0,45.0,30.24,NW,324,0.0,0.0,83,0.00,,,0.00,0.0,meteohub,2013-04-27 10:27:00,
2013-04-27 06:32:00,49.8,44.8,30.24,NW,324,0.0,0.0,83,0.00,,,0.00,0.0,meteohub,2013-04-27 10:32:00,
2013-04-27 06:37:00,49.8,45.5,30.24,NW,324,0.0,0.0,85,0.00,,,0.00,0.0,meteohub,2013-04-27 10:37:00,
2013-04-27 06:42:00,49.8,45.5,30.24,NW,324,0.0,0.0,85,0.00,,,0.00,0.0,meteohub,2013-04-27 10:42:00,
2013-04-27 06:47:00,49.8,45.1,30.24,NW,324,0.0,0.0,84,0.00,,,0.00,0.0,meteohub,2013-04-27 10:47:00,
2013-04-27 06:52:00,49.8,45.1,30.23,NW,324,0.0,0.0,84,0.00,,,0.00,0.0,meteohub,2013-04-27 10:52:00,
2013-04-27 06:57:00,49.8,45.5,30.24,NW,324,0.0,0.0,85,0.00,,,0.00,0.0,meteohub,2013-04-27 10:57:00,
2013-04-27 07:02:00,49.8,45.5,30.24,NW,324,0.0,0.0,85,0.00,,,0.00,5.0,meteohub,2013-04-27 11:02:00,
2013-04-27 07:07:00,50.0,45.3,30.25,NW,324,0.0,0.0,84,0.00,,,0.00,0.0,meteohub,2013-04-27 11:07:00,
2013-04-27 07:12:00,50.0,44.8,30.25,NW,324,0.0,0.0,82,0.00,,,0.00,7.0,meteohub,2013-04-27 11:12:00,
2013-04-27 07:17:00,50.2,44.6,30.24,NW,324,0.0,0.0,81,0.00,,,0.00,9.0,meteohub,2013-04-27 11:17:00,
2013-04-27 07:22:00,50.2,45.0,30.24,NW,324,0.0,0.0,82,0.00,,,0.00,11.0,meteohub,2013-04-27 11:22:00,
2013-04-27 07:27:00,50.2,46.2,30.24,NW,324,0.0,0.0,86,0.00,,,0.00,14.0,meteohub,2013-04-27 11:27:00,
2013-04-27 07:32:00,50.0,46.0,30.24,NW,324,1.0,1.0,86,0.00,,,0.00,16.0,meteohub,2013-04-27 11:32:00,
2013-04-27 07:37:00,49.8,45.5,30.24,NNW,329,1.0,3.0,85,0.00,,,0.00,16.0,meteohub,2013-04-27 11:37:00,
2013-04-27 07:42:00,49.5,44.8,30.23,NNW,329,1.0,3.0,84,0.00,,,0.00,14.0,meteohub,2013-04-27 11:42:00,
2013-04-27 07:47:00,49.5,45.5,30.23,NNW,329,1.0,3.0,86,0.00,,,0.00,14.0,meteohub,2013-04-27 11:47:00,
2013-04-27 07:52:00,49.5,45.5,30.24,NNW,329,2.0,3.0,86,0.00,,,0.00,19.0,meteohub,2013-04-27 11:52:00,
2013-04-27 07:57:00,49.6,46.2,30.24,NNW,329,0.0,3.0,88,0.00,,,0.00,26.0,meteohub,2013-04-27 11:57:00,
2013-04-27 08:03:00,49.6,45.0,30.25,NNW,329,0.0,3.0,84,0.00,,,0.00,23.0,meteohub,2013-04-27 12:03:00,
2013-04-27 08:09:00,49.8,45.1,30.25,NNW,329,0.0,3.0,84,0.00,,,0.00,25.0,meteohub,2013-04-27 12:09:00,
2013-04-27 08:15:00,50.0,45.0,30.24,NNW,329,0.0,0.0,83,0.00,,,0.00,33.0,meteohub,2013-04-27 12:15:00,
2013-04-27 08:21:00,50.2,45.5,30.24,NNW,329,0.0,0.0,84,0.00,,,0.00,35.0,meteohub,2013-04-27 12:21:00,
2013-04-27 08:27:00,50.2,45.1,30.24,NNW,329,0.0,0.0,83,0.00,,,0.00,42.0,meteohub,2013-04-27 12:27:00,
2013-04-27 08:32:00,50.4,45.1,30.24,NNW,329,0.0,0.0,82,0.00,,,0.00,53.0,meteohub,2013-04-27 12:32:00,
2013-04-27 08:37:00,50.5,45.3,30.25,NNW,329,0.0,1.0,82,0.00,,,0.00,35.0,meteohub,2013-04-27 12:37:00,
2013-04-27 08:42:00,50.5,45.3,30.25,NNW,329,0.0,1.0,82,0.00,,,0.00,26.0,meteohub,2013-04-27 12:42:00,
2013-04-27 08:47:00,50.7,46.0,30.25,NNW,329,0.0,1.0,84,0.00,,,0.00,35.0,meteohub,2013-04-27 12:47:00,
2013-04-27 08:52:00,50.7,45.1,30.25,NNW,329,1.0,2.0,81,0.00,,,0.00,37.0,meteohub,2013-04-27 12:52:00,
2013-04-27 08:57:00,51.1,45.5,30.25,NNW,329,0.0,2.0,81,0.00,,,0.00,47.0,meteohub,2013-04-27 12:57:00,
2013-04-27 09:02:00,51.1,44.8,30.25,NNW,329,0.0,2.0,79,0.00,,,0.00,63.0,meteohub,2013-04-27 13:02:00,
2013-04-27 09:07:00,51.3,45.0,30.25,NNW,329,0.0,2.0,79,0.00,,,0.00,56.0,meteohub,2013-04-27 13:07:00,
2013-04-27 09:12:00,51.4,45.1,30.25,NNW,329,0.0,1.0,79,0.00,,,0.00,69.0,meteohub,2013-04-27 13:12:00,
2013-04-27 09:17:00,51.6,45.0,30.25,NNW,329,0.0,2.0,78,0.00,,,0.00,70.0,meteohub,2013-04-27 13:17:00,
2013-04-27 09:22:00,52.0,45.0,30.25,NNW,329,0.0,2.0,77,0.00,,,0.00,93.0,meteohub,2013-04-27 13:22:00,
2013-04-27 09:27:00,52.2,44.8,30.24,NNW,329,0.0,2.0,76,0.00,,,0.00,70.0,meteohub,2013-04-27 13:27:00,
2013-04-27 09:32:00,52.2,44.4,30.24,NNW,329,1.0,1.0,75,0.00,,,0.00,81.0,meteohub,2013-04-27 13:32:00,
2013-04-27 09:37:00,52.3,44.6,30.24,NNW,329,1.0,2.0,75,0.00,,,0.00,72.0,meteohub,2013-04-27 13:37:00,
2013-04-27 09:42:00,52.5,45.1,30.24,NNW,329,0.0,2.0,76,0.00,,,0.00,60.0,meteohub,2013-04-27 13:42:00,
2013-04-27 09:49:00,52.5,45.9,30.24,NNW,329,0.0,2.0,78,0.00,,,0.00,63.0,meteohub,2013-04-27 13:49:00,
2013-04-27 09:55:00,52.5,45.5,30.24,NNW,329,0.0,1.0,77,0.00,,,0.00,72.0,meteohub,2013-04-27 13:55:00,
2013-04-27 10:01:00,52.7,45.7,30.24,NNW,329,0.0,1.0,77,0.00,,,0.00,77.0,meteohub,2013-04-27 14:01:00,
2013-04-27 10:07:00,52.9,46.6,30.24,NNW,329,0.0,1.0,79,0.00,,,0.00,105.0,meteohub,2013-04-27 14:07:00,
2013-04-27 10:12:00,52.9,47.5,30.25,NNW,329,0.0,0.0,82,0.00,,,0.00,113.0,meteohub,2013-04-27 14:12:00,
2013-04-27 10:17:00,52.9,46.9,30.24,NNW,329,0.0,0.0,80,0.00,,,0.00,128.0,meteohub,2013-04-27 14:17:00,
2013-04-27 10:22:00,52.9,46.6,30.25,NNW,329,0.0,0.0,79,0.00,,,0.00,137.0,meteohub,2013-04-27 14:22:00,
2013-04-27 10:28:00,52.9,46.6,30.25,NNW,329,0.0,1.0,79,0.00,,,0.00,141.0,meteohub,2013-04-27 14:28:00,
2013-04-27 10:37:00,53.1,46.4,30.25,NNW,329,0.0,1.0,78,0.00,,,0.00,116.0,meteohub,2013-04-27 14:37:00,
2013-04-27 10:44:00,53.2,47.8,30.25,NNW,329,0.0,0.0,82,0.00,,,0.00,98.0,meteohub,2013-04-27 14:44:00,
2013-04-27 10:50:00,53.2,46.9,30.25,NNW,329,0.0,0.0,79,0.00,,,0.00,105.0,meteohub,2013-04-27 14:50:00,
2013-04-27 10:56:00,53.2,46.2,30.25,NNW,329,0.0,1.0,77,0.00,,,0.00,116.0,meteohub,2013-04-27 14:56:00,
2013-04-27 11:02:00,53.4,46.4,30.25,NNW,329,0.0,1.0,77,0.00,,,0.00,107.0,meteohub,2013-04-27 15:02:00,
2013-04-27 11:07:00,53.6,47.3,30.25,NNW,329,0.0,1.0,79,0.00,,,0.00,125.0,meteohub,2013-04-27 15:07:00,
2013-04-27 11:12:00,53.8,46.4,30.25,NNW,329,0.0,1.0,76,0.00,,,0.00,146.0,meteohub,2013-04-27 15:12:00,
2013-04-27 11:17:00,54.0,46.9,30.24,NNW,329,0.0,1.0,77,0.00,,,0.00,139.0,meteohub,2013-04-27 15:17:00,
2013-04-27 11:22:00,54.1,46.8,30.25,NNW,329,0.0,1.0,76,0.00,,,0.00,130.0,meteohub,2013-04-27 15:22:00,
2013-04-27 11:27:00,54.3,47.3,30.25,NNW,329,0.0,1.0,77,0.00,,,0.00,111.0,meteohub,2013-04-27 15:27:00,
2013-04-27 11:32:00,54.3,48.0,30.25,NNW,329,0.0,1.0,79,0.00,,,0.00,102.0,meteohub,2013-04-27 15:32:00,
2013-04-27 11:37:00,54.3,48.0,30.25,NNW,329,0.0,1.0,79,0.00,,,0.00,97.0,meteohub,2013-04-27 15:37:00,
2013-04-27 11:42:00,54.1,45.7,30.25,NNW,329,0.0,1.0,73,0.00,,,0.00,109.0,meteohub,2013-04-27 15:42:00,
2013-04-27 11:47:00,54.1,46.0,30.25,NNW,329,0.0,0.0,74,0.00,,,0.00,139.0,meteohub,2013-04-27 15:47:00,
2013-04-27 11:52:00,54.3,46.9,30.25,NNW,329,0.0,0.0,76,0.00,,,0.00,162.0,meteohub,2013-04-27 15:52:00,
2013-04-27 11:57:00,54.3,45.9,30.25,NNW,329,0.0,0.0,73,0.00,,,0.00,172.0,meteohub,2013-04-27 15:57:00,
2013-04-27 12:02:00,54.5,46.4,30.25,NNW,329,0.0,0.0,74,0.00,,,0.00,188.0,meteohub,2013-04-27 16:02:00,
2013-04-27 12:07:00,54.9,47.5,30.25,NNW,329,0.0,2.0,76,0.00,,,0.00,148.0,meteohub,2013-04-27 16:07:00,
2013-04-27 12:12:00,54.9,49.1,30.25,NNW,329,0.0,2.0,81,0.00,,,0.00,142.0,meteohub,2013-04-27 16:12:00,
2013-04-27 12:17:00,54.9,47.8,30.25,NNW,329,1.0,2.0,77,0.00,,,0.00,121.0,meteohub,2013-04-27 16:17:00,
2013-04-27 12:22:00,54.9,48.6,30.25,NNW,329,0.0,1.0,79,0.00,,,0.00,93.0,meteohub,2013-04-27 16:22:00,
2013-04-27 12:27:00,54.9,49.1,30.25,NNW,329,0.0,1.0,81,0.00,,,0.00,72.0,meteohub,2013-04-27 16:27:00,
2013-04-27 12:32:00,54.7,49.6,30.25,NNW,329,0.0,1.0,83,0.00,,,0.00,81.0,meteohub,2013-04-27 16:32:00,
2013-04-27 12:37:00,54.3,49.8,30.25,NNW,329,0.0,0.0,85,0.00,,,0.00,77.0,meteohub,2013-04-27 16:37:00,
2013-04-27 12:42:00,54.3,50.2,30.25,NNW,329,0.0,0.0,86,0.00,,,0.00,70.0,meteohub,2013-04-27 16:42:00,
2013-04-27 12:47:00,54.0,49.8,30.25,NNW,329,0.0,0.0,86,0.00,,,0.00,70.0,meteohub,2013-04-27 16:47:00,
2013-04-27 12:52:00,54.0,50.2,30.24,NNW,329,0.0,0.0,87,0.01,,,0.01,58.0,meteohub,2013-04-27 16:52:00,
2013-04-27 12:57:00,53.8,49.6,30.24,NNW,329,0.0,0.0,86,0.01,,,0.01,56.0,meteohub,2013-04-27 16:57:00,
2013-04-27 13:02:00,53.4,49.6,30.25,NNW,329,0.0,0.0,87,0.01,,,0.01,60.0,meteohub,2013-04-27 17:02:00,
2013-04-27 13:07:00,53.1,49.3,30.25,NNW,329,0.0,0.0,87,0.01,,,0.01,58.0,meteohub,2013-04-27 17:07:00,
2013-04-27 13:12:00,52.9,49.5,30.25,NNW,329,0.0,0.0,88,0.02,,,0.02,53.0,meteohub,2013-04-27 17:12:00,
2013-04-27 13:17:00,52.5,49.5,30.25,NNW,329,0.0,0.0,89,0.03,,,0.03,40.0,meteohub,2013-04-27 17:17:00,
2013-04-27 13:22:00,52.3,49.5,30.25,NNW,329,0.0,1.0,90,0.05,,,0.05,53.0,meteohub,2013-04-27 17:22:00,
2013-04-27 13:27:00,52.0,49.5,30.25,NNW,329,1.0,1.0,91,0.06,,,0.06,47.0,meteohub,2013-04-27 17:27:00,
2013-04-27 13:32:00,51.4,48.9,30.25,NNW,329,0.0,2.0,91,0.07,,,0.07,44.0,meteohub,2013-04-27 17:32:00,
2013-04-27 13:37:00,51.3,49.3,30.26,NNW,329,0.0,2.0,93,0.08,,,0.08,35.0,meteohub,2013-04-27 17:37:00,
2013-04-27 13:42:00,51.1,49.1,30.25,NNW,329,0.0,2.0,93,0.09,,,0.09,37.0,meteohub,2013-04-27 17:42:00,
2013-04-27 13:47:00,50.9,48.9,30.25,NNW,329,0.0,1.0,93,0.10,,,0.10,47.0,meteohub,2013-04-27 17:47:00,
2013-04-27 13:52:00,50.7,49.1,30.25,NNW,329,0.0,1.0,94,0.12,,,0.13,49.0,meteohub,2013-04-27 17:52:00,
2013-04-27 13:57:00,50.7,49.1,30.26,NNW,329,0.0,1.0,94,0.12,,,0.13,40.0,meteohub,2013-04-27 17:57:00,
2013-04-27 14:02:00,50.7,49.1,30.26,NNW,329,0.0,1.0,94,0.13,,,0.14,33.0,meteohub,2013-04-27 18:02:00,
2013-04-27 14:07:00,50.5,48.9,30.26,NNW,329,0.0,1.0,94,0.14,,,0.16,25.0,meteohub,2013-04-27 18:07:00,
2013-04-27 14:12:00,50.5,48.9,30.25,NNW,329,0.0,1.0,94,0.15,,,0.17,26.0,meteohub,2013-04-27 18:12:00,
2013-04-27 14:17:00,50.4,48.9,30.24,NNW,329,1.0,2.0,95,0.16,,,0.20,21.0,meteohub,2013-04-27 18:17:00,
2013-04-27 14:22:00,50.4,48.9,30.24,NNW,329,1.0,3.0,95,0.16,,,0.22,21.0,meteohub,2013-04-27 18:22:00,
2013-04-27 14:27:00,50.2,48.7,30.25,NNW,329,0.0,3.0,95,0.16,,,0.23,26.0,meteohub,2013-04-27 18:27:00,
2013-04-27 14:32:00,50.2,48.7,30.26,NNW,329,0.0,3.0,95,0.18,,,0.26,33.0,meteohub,2013-04-27 18:32:00,
2013-04-27 14:37:00,50.2,49.1,30.25,NNW,329,0.0,2.0,96,0.19,,,0.27,25.0,meteohub,2013-04-27 18:37:00,
2013-04-27 14:42:00,50.2,49.1,30.25,NNW,329,0.0,1.0,96,0.21,,,0.30,23.0,meteohub,2013-04-27 18:42:00,
2013-04-27 14:47:00,50.2,49.1,30.25,NNW,329,0.0,0.0,96,0.22,,,0.33,21.0,meteohub,2013-04-27 18:47:00,
2013-04-27 14:52:00,50.2,49.1,30.24,NNW,329,0.0,0.0,96,0.21,,,0.34,25.0,meteohub,2013-04-27 18:52:00,
2013-04-27 14:57:00,50.0,48.9,30.24,NNW,329,0.0,1.0,96,0.21,,,0.35,37.0,meteohub,2013-04-27 18:57:00,
2013-04-27 15:02:00,50.0,48.9,30.25,NNW,329,0.0,2.0,96,0.24,,,0.36,28.0,meteohub,2013-04-27 19:02:00,
2013-04-27 15:07:00,50.0,48.9,30.24,NNW,329,1.0,2.0,96,0.23,,,0.39,37.0,meteohub,2013-04-27 19:07:00,
2013-04-27 15:12:00,49.8,48.7,30.24,NNW,329,1.0,2.0,96,0.24,,,0.42,44.0,meteohub,2013-04-27 19:12:00,
2013-04-27 15:17:00,49.8,48.7,30.24,NNW,329,0.0,3.0,96,0.22,,,0.43,44.0,meteohub,2013-04-27 19:17:00,
2013-04-27 15:22:00,49.8,48.7,30.24,NNW,329,0.0,3.0,96,0.22,,,0.45,47.0,meteohub,2013-04-27 19:22:00,
2013-04-27 15:27:00,50.0,49.1,30.24,NNW,329,0.0,2.0,97,0.23,,,0.47,51.0,meteohub,2013-04-27 19:27:00,
2013-04-27 15:32:00,50.2,49.3,30.24,NNW,329,0.0,1.0,97,0.22,,,0.48,72.0,meteohub,2013-04-27 19:32:00,
2013-04-27 15:37:00,50.4,49.5,30.23,NNW,329,0.0,2.0,97,0.20,,,0.49,83.0,meteohub,2013-04-27 19:37:00,
2013-04-27 15:42:00,50.4,49.5,30.22,NNW,329,0.0,2.0,97,0.20,,,0.51,69.0,meteohub,2013-04-27 19:42:00,
2013-04-27 15:47:00,50.4,49.5,30.22,NNW,329,0.0,1.0,97,0.18,,,0.51,56.0,meteohub,2013-04-27 19:47:00,
2013-04-27 15:52:00,50.2,49.3,30.22,NNW,329,0.0,2.0,97,0.18,,,0.52,56.0,meteohub,2013-04-27 19:52:00,
2013-04-27 15:57:00,50.2,49.3,30.22,NNW,329,0.0,2.0,97,0.16,,,0.52,58.0,meteohub,2013-04-27 19:57:00,
2013-04-27 16:02:00,50.2,49.3,30.22,NNW,329,0.0,2.0,97,0.14,,,0.52,54.0,meteohub,2013-04-27 20:02:00,
2013-04-27 16:07:00,50.2,49.3,30.21,NNW,329,0.0,1.0,97,0.12,,,0.52,72.0,meteohub,2013-04-27 20:07:00,
2013-04-27 16:12:00,50.2,49.3,30.21,NNW,329,0.0,2.0,97,0.09,,,0.52,62.0,meteohub,2013-04-27 20:12:00,
2013-04-27 16:17:00,50.2,49.3,30.22,NNW,329,2.0,2.0,97,0.08,,,0.52,54.0,meteohub,2013-04-27 20:17:00,
2013-04-27 16:22:00,50.2,49.3,30.22,NNW,329,0.0,2.0,97,0.06,,,0.52,65.0,meteohub,2013-04-27 20:22:00,
2013-04-27 16:27:00,50.4,49.5,30.22,NNW,329,1.0,2.0,97,0.05,,,0.52,49.0,meteohub,2013-04-27 20:27:00,
2013-04-27 16:32:00,50.4,49.5,30.22,NNW,330,2.0,2.0,97,0.04,,,0.52,40.0,meteohub,2013-04-27 20:32:00,
2013-04-27 16:37:00,50.2,49.3,30.23,North,350,2.0,4.0,97,0.02,,,0.52,40.0,meteohub,2013-04-27 20:37:00,
2013-04-27 16:42:00,50.2,49.1,30.23,North,355,1.0,4.0,96,0.02,,,0.53,40.0,meteohub,2013-04-27 20:42:00,
2013-04-27 16:47:00,50.2,49.1,30.22,North,349,2.0,4.0,96,0.03,,,0.54,47.0,meteohub,2013-04-27 20:47:00,
2013-04-27 16:52:00,50.2,49.1,30.22,North,355,3.0,4.0,96,0.02,,,0.54,47.0,meteohub,2013-04-27 20:52:00,
2013-04-27 16:57:00,50.2,49.1,30.22,North,355,2.0,4.0,96,0.03,,,0.55,37.0,meteohub,2013-04-27 20:57:00,
2013-04-27 17:02:00,50.2,49.1,30.22,North,355,2.0,4.0,96,0.04,,,0.56,28.0,meteohub,2013-04-27 21:02:00,
2013-04-27 17:07:00,50.2,49.3,30.21,North,355,2.0,4.0,97,0.04,,,0.56,21.0,meteohub,2013-04-27 21:07:00,
2013-04-27 17:12:00,50.0,48.9,30.21,North,355,1.0,10.0,96,0.05,,,0.57,25.0,meteohub,2013-04-27 21:12:00,
2013-04-27 17:17:00,50.0,49.1,30.21,North,355,0.0,10.0,97,0.05,,,0.57,40.0,meteohub,2013-04-27 21:17:00,
2013-04-27 17:22:00,50.2,49.3,30.21,North,355,0.0,10.0,97,0.08,,,0.60,53.0,meteohub,2013-04-27 21:22:00,
2013-04-27 17:27:00,50.2,49.3,30.21,North,355,1.0,2.0,97,0.09,,,0.61,42.0,meteohub,2013-04-27 21:27:00,
2013-04-27 17:32:00,50.0,49.1,30.21,North,355,0.0,2.0,97,0.10,,,0.62,32.0,meteohub,2013-04-27 21:32:00,
2013-04-27 17:37:00,49.8,48.9,30.20,North,0,1.0,2.0,97,0.10,,,0.62,30.0,meteohub,2013-04-27 21:37:00,
2013-04-27 17:42:00,49.6,48.7,30.20,North,5,0.0,2.0,97,0.10,,,0.63,30.0,meteohub,2013-04-27 21:42:00,
2013-04-27 17:47:00,49.3,48.4,30.19,NNE,13,1.0,3.0,97,0.10,,,0.64,28.0,meteohub,2013-04-27 21:47:00,
2013-04-27 17:52:00,48.9,48.0,30.19,NNE,16,0.0,3.0,97,0.10,,,0.64,28.0,meteohub,2013-04-27 21:52:00,
2013-04-27 17:57:00,48.7,47.8,30.20,North,0,0.0,3.0,97,0.09,,,0.64,30.0,meteohub,2013-04-27 21:57:00,
2013-04-27 18:02:00,48.7,47.8,30.20,North,5,1.0,3.0,97,0.08,,,0.64,28.0,meteohub,2013-04-27 22:02:00,
2013-04-27 18:07:00,48.7,47.8,30.20,North,5,0.0,3.0,97,0.07,,,0.64,21.0,meteohub,2013-04-27 22:07:00,
2013-04-27 18:12:00,48.7,47.8,30.21,North,5,0.0,3.0,97,0.07,,,0.64,18.0,meteohub,2013-04-27 22:12:00,
2013-04-27 18:17:00,48.7,47.8,30.21,North,5,0.0,3.0,97,0.07,,,0.65,12.0,meteohub,2013-04-27 22:17:00,
2013-04-27 18:22:00,48.7,48.2,30.21,North,5,0.0,3.0,98,0.05,,,0.65,9.0,meteohub,2013-04-27 22:22:00,
2013-04-27 18:28:00,48.7,48.2,30.22,North,5,0.0,1.0,98,0.03,,,0.65,11.0,meteohub,2013-04-27 22:28:00,
2013-04-27 18:34:00,48.7,48.2,30.22,North,5,0.0,3.0,98,0.03,,,0.65,16.0,meteohub,2013-04-27 22:34:00,
2013-04-27 18:40:00,48.7,48.2,30.22,North,5,2.0,3.0,98,0.02,,,0.65,12.0,meteohub,2013-04-27 22:40:00,
2013-04-27 18:46:00,48.9,48.4,30.22,North,5,0.0,2.0,98,0.02,,,0.66,12.0,meteohub,2013-04-27 22:46:00,
2013-04-27 18:52:00,48.9,48.4,30.22,North,5,3.0,3.0,98,0.02,,,0.66,12.0,meteohub,2013-04-27 22:52:00,
2013-04-27 18:57:00,48.9,48.4,30.21,North,5,0.0,3.0,98,0.02,,,0.66,9.0,meteohub,2013-04-27 22:57:00,
2013-04-27 19:02:00,49.1,48.6,30.21,North,5,1.0,3.0,98,0.03,,,0.66,7.0,meteohub,2013-04-27 23:02:00,
2013-04-27 19:07:00,49.1,48.6,30.22,North,5,0.0,3.0,98,0.03,,,0.67,5.0,meteohub,2013-04-27 23:07:00,
2013-04-27 19:12:00,48.9,48.4,30.22,North,5,0.0,2.0,98,0.04,,,0.68,7.0,meteohub,2013-04-27 23:12:00,
2013-04-27 19:17:00,48.9,48.4,30.21,North,5,0.0,2.0,98,0.04,,,0.69,5.0,meteohub,2013-04-27 23:17:00,
2013-04-27 19:22:00,48.7,48.2,30.21,North,5,0.0,2.0,98,0.06,,,0.71,5.0,meteohub,2013-04-27 23:22:00,
2013-04-27 19:27:00,48.6,48.0,30.21,North,5,0.0,2.0,98,0.08,,,0.73,0.0,meteohub,2013-04-27 23:27:00,
2013-04-27 19:32:00,48.4,47.8,30.21,SSE,153,0.0,2.0,98,0.09,,,0.74,0.0,meteohub,2013-04-27 23:32:00,
2013-04-27 19:37:00,48.2,47.3,30.21,East,100,0.0,6.0,97,0.10,,,0.75,0.0,meteohub,2013-04-27 23:37:00,
2013-04-27 19:42:00,48.2,47.3,30.21,East,100,0.0,6.0,97,0.12,,,0.77,0.0,meteohub,2013-04-27 23:42:00,
2013-04-27 19:47:00,48.2,47.3,30.20,SE,133,4.0,5.0,97,0.12,,,0.78,0.0,meteohub,2013-04-27 23:47:00,
2013-04-27 19:52:00,48.0,47.1,30.19,East,94,1.0,5.0,97,0.13,,,0.79,0.0,meteohub,2013-04-27 23:52:00,
2013-04-27 19:57:00,48.0,46.9,30.19,ESE,103,0.0,6.0,96,0.14,,,0.80,0.0,meteohub,2013-04-27 23:57:00,
2013-04-27 20:02:00,48.0,46.9,30.20,East,101,0.0,6.0,96,0.13,,,0.80,0.0,meteohub,2013-04-28 00:02:00,
2013-04-27 20:07:00,47.8,46.8,30.19,SSE,150,1.0,6.0,96,0.13,,,0.81,0.0,meteohub,2013-04-28 00:07:00,
2013-04-27 20:12:00,47.8,46.8,30.19,ESE,109,0.0,5.0,96,0.12,,,0.81,0.0,meteohub,2013-04-28 00:12:00,
2013-04-27 20:17:00,47.8,46.8,30.19,SSE,148,1.0,5.0,96,0.12,,,0.82,0.0,meteohub,2013-04-28 00:17:00,
2013-04-27 20:22:00,47.8,46.8,30.19,SE,138,2.0,5.0,96,0.10,,,0.82,0.0,meteohub,2013-04-28 00:22:00,
2013-04-27 20:27:00,47.8,46.4,30.19,East,96,1.0,5.0,95,0.08,,,0.82,0.0,meteohub,2013-04-28 00:27:00,
2013-04-27 20:32:00,47.8,46.2,30.19,SE,144,0.0,5.0,94,0.07,,,0.82,0.0,meteohub,2013-04-28 00:32:00,
2013-04-27 20:37:00,48.0,46.4,30.19,ESE,113,0.0,7.0,94,0.06,,,0.82,0.0,meteohub,2013-04-28 00:37:00,
2013-04-27 20:42:00,48.0,46.0,30.18,East,82,1.0,7.0,93,0.05,,,0.82,0.0,meteohub,2013-04-28 00:42:00,
2013-04-27 20:47:00,48.4,46.2,30.18,South,169,2.0,7.0,92,0.04,,,0.82,0.0,meteohub,2013-04-28 00:47:00,
2013-04-27 20:52:00,48.4,45.9,30.18,SSE,156,0.0,4.0,91,0.03,,,0.82,0.0,meteohub,2013-04-28 00:52:00,
2013-04-27 20:57:00,48.6,46.0,30.18,SW,217,1.0,4.0,91,0.02,,,0.82,0.0,meteohub,2013-04-28 00:57:00,
2013-04-27 21:02:00,48.7,45.9,30.19,East,92,0.0,6.0,90,0.02,,,0.82,0.0,meteohub,2013-04-28 01:02:00,
2013-04-27 21:07:00,48.9,45.9,30.19,ESE,111,0.0,6.0,89,0.01,,,0.82,0.0,meteohub,2013-04-28 01:07:00,
2013-04-27 21:12:00,48.9,45.5,30.18,ESE,116,1.0,6.0,88,0.00,,,0.82,0.0,meteohub,2013-04-28 01:12:00,
2013-04-27 21:17:00,49.1,45.3,30.19,SE,128,1.0,5.0,87,0.00,,,0.82,0.0,meteohub,2013-04-28 01:17:00,
2013-04-27 21:22:00,49.3,45.0,30.19,East,91,0.0,5.0,85,0.00,,,0.82,0.0,meteohub,2013-04-28 01:22:00,
2013-04-27 21:27:00,49.5,45.5,30.19,SSE,147,0.0,7.0,86,0.00,,,0.82,0.0,meteohub,2013-04-28 01:27:00,
2013-04-27 21:32:00,49.5,45.5,30.19,ESE,108,0.0,7.0,86,0.00,,,0.82,0.0,meteohub,2013-04-28 01:32:00,
2013-04-27 21:37:00,49.3,45.5,30.19,ESE,123,0.0,7.0,87,0.00,,,0.82,0.0,meteohub,2013-04-28 01:37:00,
2013-04-27 21:42:00,49.3,44.6,30.19,ESE,116,0.0,5.0,84,0.00,,,0.82,0.0,meteohub,2013-04-28 01:42:00,
2013-04-27 21:47:00,49.3,45.5,30.19,South,178,4.0,5.0,87,0.00,,,0.82,0.0,meteohub,2013-04-28 01:47:00,
2013-04-27 21:52:00,49.3,44.6,30.19,ESE,121,1.0,4.0,84,0.00,,,0.82,0.0,meteohub,2013-04-28 01:52:00,
2013-04-27 21:57:00,49.5,44.2,30.19,ESE,119,2.0,6.0,82,0.00,,,0.82,0.0,meteohub,2013-04-28 01:57:00,
2013-04-27 22:02:00,49.6,45.0,30.19,ESE,123,2.0,6.0,84,0.00,,,0.82,0.0,meteohub,2013-04-28 02:02:00,
2013-04-27 22:07:00,49.5,43.5,30.19,SE,141,5.0,6.0,80,0.00,,,0.82,0.0,meteohub,2013-04-28 02:07:00,
2013-04-27 22:12:00,49.8,44.2,30.19,ESE,123,0.0,6.0,81,0.00,,,0.82,0.0,meteohub,2013-04-28 02:12:00,
2013-04-27 22:17:00,50.0,44.1,30.18,East,87,1.0,6.0,80,0.00,,,0.82,0.0,meteohub,2013-04-28 02:17:00,
2013-04-27 22:23:00,50.2,44.2,30.18,ESE,119,0.0,6.0,80,0.00,,,0.82,0.0,meteohub,2013-04-28 02:23:00,
2013-04-27 22:29:00,50.0,44.1,30.18,SE,142,0.0,6.0,80,0.00,,,0.82,0.0,meteohub,2013-04-28 02:29:00,
2013-04-27 22:35:00,50.2,43.9,30.18,ESE,115,0.0,9.0,79,0.00,,,0.82,0.0,meteohub,2013-04-28 02:35:00,
2013-04-27 22:42:00,50.4,44.4,30.18,ESE,109,1.0,9.0,80,0.00,,,0.82,0.0,meteohub,2013-04-28 02:42:00,
2013-04-27 22:47:00,50.4,44.8,30.18,NNW,343,1.0,9.0,81,0.00,,,0.82,0.0,meteohub,2013-04-28 02:47:00,
2013-04-27 22:52:00,50.4,45.1,30.18,ENE,59,1.0,4.0,82,0.00,,,0.82,0.0,meteohub,2013-04-28 02:52:00,
2013-04-27 22:57:00,50.4,45.3,30.18,NE,52,0.0,4.0,83,0.00,,,0.82,0.0,meteohub,2013-04-28 02:57:00,
2013-04-27 23:02:00,50.4,45.7,30.18,NE,54,0.0,4.0,84,0.00,,,0.82,0.0,meteohub,2013-04-28 03:02:00,
2013-04-27 23:07:00,50.4,46.0,30.18,ENE,73,1.0,3.0,85,0.00,,,0.82,0.0,meteohub,2013-04-28 03:07:00,
2013-04-27 23:12:00,50.4,46.0,30.18,NE,52,0.0,3.0,85,0.00,,,0.82,0.0,meteohub,2013-04-28 03:12:00,
2013-04-27 23:17:00,50.2,46.2,30.18,NE,53,0.0,6.0,86,0.00,,,0.82,0.0,meteohub,2013-04-28 03:17:00,
2013-04-27 23:22:00,50.4,46.0,30.17,East,80,0.0,6.0,85,0.00,,,0.82,0.0,meteohub,2013-04-28 03:22:00,
2013-04-27 23:27:00,50.2,45.9,30.17,NNW,340,2.0,6.0,85,0.00,,,0.82,0.0,meteohub,2013-04-28 03:27:00,
2013-04-27 23:32:00,50.2,46.2,30.18,NE,40,0.0,5.0,86,0.00,,,0.82,0.0,meteohub,2013-04-28 03:32:00,
2013-04-27 23:37:00,50.0,46.2,30.18,NE,53,1.0,5.0,87,0.00,,,0.82,0.0,meteohub,2013-04-28 03:37:00,
2013-04-27 23:42:00,50.0,46.6,30.18,North,355,0.0,5.0,88,0.00,,,0.82,0.0,meteohub,2013-04-28 03:42:00,
2013-04-27 23:47:00,50.0,46.6,30.18,North,5,0.0,4.0,88,0.00,,,0.82,0.0,meteohub,2013-04-28 03:47:00,
2013-04-27 23:52:00,50.0,46.6,30.18,NNE,26,1.0,4.0,88,0.00,,,0.82,0.0,meteohub,2013-04-28 03:52:00,
2013-04-27 23:57:00,50.0,46.6,30.18,NNE,26,3.0,4.0,88,0.00,,,0.82,0.0,meteohub,2013-04-28 03:57:00,